sensor_id;sensor_type;location;lat;lon;timestamp;P1;durP1;ratioP1;P2;durP2;ratioP2
27489;SDS011;14925;51.026;13.752;2022-12-22T00:02:27;33.78;;;16.35;;
27489;SDS011;14925;51.026;13.752;2022-12-22T00:05:12;51.70;;;23.17;;
27489;SDS011;14925;51.026;13.752;2022-12-22T00:07:56;50.97;;;23.85;;
27489;SDS011;14925;51.026;13.752;2022-12-22T00:10:40;52.50;;;23.50;;
27489;SDS011;14925;51.026;13.752;2022-12-22T00:13:24;48.97;;;23.90;;
27489;SDS011;14925;51.026;13.752;2022-12-22T00:16:08;46.65;;;23.63;;
27489;SDS011;14925;51.026;13.752;2022-12-22T00:18:52;51.22;;;23.98;;
27489;SDS011;14925;51.026;13.752;2022-12-22T00:21:36;50.50;;;24.80;;
27489;SDS011;14925;51.026;13.752;2022-12-22T00:24:20;48.75;;;23.92;;
27489;SDS011;14925;51.026;13.752;2022-12-22T00:27:04;54.05;;;24.77;;
27489;SDS011;14925;51.026;13.752;2022-12-22T00:29:48;51.22;;;24.33;;
27489;SDS011;14925;51.026;13.752;2022-12-22T00:32:33;34.75;;;16.70;;
27489;SDS011;14925;51.026;13.752;2022-12-22T00:35:24;49.28;;;24.45;;
27489;SDS011;14925;51.026;13.752;2022-12-22T00:38:12;49.70;;;23.50;;
27489;SDS011;14925;51.026;13.752;2022-12-22T00:40:58;50.65;;;24.38;;
27489;SDS011;14925;51.026;13.752;2022-12-22T00:43:42;51.60;;;23.67;;
27489;SDS011;14925;51.026;13.752;2022-12-22T00:46:26;51.50;;;23.40;;
27489;SDS011;14925;51.026;13.752;2022-12-22T00:49:10;49.63;;;23.63;;
27489;SDS011;14925;51.026;13.752;2022-12-22T00:54:39;44.97;;;21.83;;
27489;SDS011;14925;51.026;13.752;2022-12-22T00:57:22;52.95;;;24.75;;
27489;SDS011;14925;51.026;13.752;2022-12-22T01:00:08;52.95;;;24.63;;
27489;SDS011;14925;51.026;13.752;2022-12-22T01:03:00;49.10;;;23.52;;
27489;SDS011;14925;51.026;13.752;2022-12-22T01:05:44;50.95;;;24.77;;
27489;SDS011;14925;51.026;13.752;2022-12-22T01:08:28;53.40;;;24.50;;
27489;SDS011;14925;51.026;13.752;2022-12-22T01:11:12;50.72;;;24.08;;
27489;SDS011;14925;51.026;13.752;2022-12-22T01:13:56;46.75;;;23.85;;
27489;SDS011;14925;51.026;13.752;2022-12-22T01:16:40;46.22;;;23.67;;
27489;SDS011;14925;51.026;13.752;2022-12-22T01:19:24;44.40;;;22.17;;
27489;SDS011;14925;51.026;13.752;2022-12-22T01:22:11;48.85;;;23.98;;
27489;SDS011;14925;51.026;13.752;2022-12-22T01:24:56;46.72;;;22.33;;
27489;SDS011;14925;51.026;13.752;2022-12-22T01:27:40;43.58;;;23.25;;
27489;SDS011;14925;51.026;13.752;2022-12-22T01:30:24;31.63;;;17.52;;
27489;SDS011;14925;51.026;13.752;2022-12-22T01:33:10;47.42;;;22.33;;
27489;SDS011;14925;51.026;13.752;2022-12-22T01:35:54;47.88;;;22.60;;
27489;SDS011;14925;51.026;13.752;2022-12-22T01:38:38;41.38;;;20.90;;
27489;SDS011;14925;51.026;13.752;2022-12-22T01:41:22;32.47;;;15.82;;
27489;SDS011;14925;51.026;13.752;2022-12-22T01:44:11;45.45;;;22.73;;
27489;SDS011;14925;51.026;13.752;2022-12-22T01:50:25;47.08;;;22.40;;
27489;SDS011;14925;51.026;13.752;2022-12-22T01:53:14;42.53;;;21.45;;
27489;SDS011;14925;51.026;13.752;2022-12-22T01:56:01;40.95;;;22.00;;
27489;SDS011;14925;51.026;13.752;2022-12-22T02:01:31;43.88;;;20.83;;
27489;SDS011;14925;51.026;13.752;2022-12-22T02:04:16;39.25;;;20.20;;
27489;SDS011;14925;51.026;13.752;2022-12-22T02:07:12;41.22;;;21.17;;
27489;SDS011;14925;51.026;13.752;2022-12-22T02:25:53;37.13;;;19.40;;
27489;SDS011;14925;51.026;13.752;2022-12-22T02:28:42;32.38;;;18.77;;
27489;SDS011;14925;51.026;13.752;2022-12-22T02:31:32;35.20;;;18.98;;
27489;SDS011;14925;51.026;13.752;2022-12-22T02:34:17;40.47;;;20.27;;
27489;SDS011;14925;51.026;13.752;2022-12-22T02:46:24;39.35;;;20.35;;
27489;SDS011;14925;51.026;13.752;2022-12-22T02:49:16;37.47;;;20.02;;
27489;SDS011;14925;51.026;13.752;2022-12-22T02:52:06;38.88;;;20.85;;
27489;SDS011;14925;51.026;13.752;2022-12-22T02:54:57;37.60;;;18.83;;
27489;SDS011;14925;51.026;13.752;2022-12-22T02:57:41;35.38;;;20.50;;
27489;SDS011;14925;51.026;13.752;2022-12-22T03:00:25;36.03;;;19.58;;
27489;SDS011;14925;51.026;13.752;2022-12-22T03:03:09;38.88;;;20.20;;
27489;SDS011;14925;51.026;13.752;2022-12-22T03:05:53;30.70;;;15.75;;
27489;SDS011;14925;51.026;13.752;2022-12-22T03:08:37;40.08;;;21.23;;
27489;SDS011;14925;51.026;13.752;2022-12-22T03:11:21;39.47;;;21.35;;
27489;SDS011;14925;51.026;13.752;2022-12-22T03:14:05;33.55;;;16.33;;
27489;SDS011;14925;51.026;13.752;2022-12-22T03:16:49;43.00;;;21.05;;
27489;SDS011;14925;51.026;13.752;2022-12-22T03:19:33;42.25;;;22.20;;
27489;SDS011;14925;51.026;13.752;2022-12-22T03:22:17;42.38;;;22.27;;
27489;SDS011;14925;51.026;13.752;2022-12-22T03:25:01;31.95;;;16.48;;
27489;SDS011;14925;51.026;13.752;2022-12-22T03:27:45;41.25;;;22.63;;
27489;SDS011;14925;51.026;13.752;2022-12-22T03:30:11;41.83;;;21.80;;
27489;SDS011;14925;51.026;13.752;2022-12-22T03:32:36;41.20;;;22.05;;
27489;SDS011;14925;51.026;13.752;2022-12-22T03:35:01;46.17;;;23.48;;
27489;SDS011;14925;51.026;13.752;2022-12-22T03:37:27;41.17;;;21.85;;
27489;SDS011;14925;51.026;13.752;2022-12-22T03:39:55;43.35;;;22.75;;
27489;SDS011;14925;51.026;13.752;2022-12-22T03:42:21;44.20;;;23.15;;
27489;SDS011;14925;51.026;13.752;2022-12-22T03:45:05;42.38;;;22.27;;
27489;SDS011;14925;51.026;13.752;2022-12-22T03:50:14;44.67;;;23.13;;
27489;SDS011;14925;51.026;13.752;2022-12-22T03:52:40;48.17;;;23.45;;
27489;SDS011;14925;51.026;13.752;2022-12-22T03:55:08;45.67;;;22.60;;
27489;SDS011;14925;51.026;13.752;2022-12-22T03:57:33;44.72;;;22.75;;
27489;SDS011;14925;51.026;13.752;2022-12-22T03:59:59;40.58;;;22.98;;
27489;SDS011;14925;51.026;13.752;2022-12-22T04:02:24;44.67;;;24.00;;
27489;SDS011;14925;51.026;13.752;2022-12-22T04:04:50;47.92;;;24.55;;
27489;SDS011;14925;51.026;13.752;2022-12-22T04:07:15;45.25;;;23.65;;
27489;SDS011;14925;51.026;13.752;2022-12-22T04:09:40;46.05;;;24.05;;
27489;SDS011;14925;51.026;13.752;2022-12-22T04:12:26;45.15;;;23.60;;
27489;SDS011;14925;51.026;13.752;2022-12-22T04:15:10;32.22;;;18.15;;
27489;SDS011;14925;51.026;13.752;2022-12-22T04:17:35;42.20;;;22.95;;
27489;SDS011;14925;51.026;13.752;2022-12-22T04:20:00;46.42;;;22.73;;
27489;SDS011;14925;51.026;13.752;2022-12-22T04:22:26;44.95;;;22.75;;
27489;SDS011;14925;51.026;13.752;2022-12-22T04:24:51;44.35;;;24.50;;
27489;SDS011;14925;51.026;13.752;2022-12-22T04:27:19;39.40;;;21.85;;
27489;SDS011;14925;51.026;13.752;2022-12-22T04:29:45;42.38;;;21.52;;
27489;SDS011;14925;51.026;13.752;2022-12-22T04:32:10;40.60;;;21.75;;
27489;SDS011;14925;51.026;13.752;2022-12-22T04:34:38;38.50;;;21.05;;
27489;SDS011;14925;51.026;13.752;2022-12-22T04:37:04;39.83;;;22.13;;
27489;SDS011;14925;51.026;13.752;2022-12-22T04:39:29;41.15;;;20.92;;
27489;SDS011;14925;51.026;13.752;2022-12-22T04:41:54;41.38;;;21.27;;
27489;SDS011;14925;51.026;13.752;2022-12-22T04:44:20;38.28;;;21.10;;
27489;SDS011;14925;51.026;13.752;2022-12-22T04:46:45;43.08;;;22.00;;
27489;SDS011;14925;51.026;13.752;2022-12-22T04:49:10;38.53;;;20.52;;
27489;SDS011;14925;51.026;13.752;2022-12-22T04:51:36;42.45;;;22.45;;
27489;SDS011;14925;51.026;13.752;2022-12-22T04:54:01;40.45;;;21.80;;
27489;SDS011;14925;51.026;13.752;2022-12-22T04:56:27;39.65;;;21.63;;
27489;SDS011;14925;51.026;13.752;2022-12-22T04:58:52;39.55;;;22.05;;
27489;SDS011;14925;51.026;13.752;2022-12-22T05:01:17;39.97;;;21.05;;
27489;SDS011;14925;51.026;13.752;2022-12-22T05:03:43;38.97;;;20.55;;
27489;SDS011;14925;51.026;13.752;2022-12-22T05:06:09;40.58;;;21.98;;
27489;SDS011;14925;51.026;13.752;2022-12-22T05:08:34;44.13;;;21.65;;
27489;SDS011;14925;51.026;13.752;2022-12-22T05:11:00;42.47;;;22.73;;
27489;SDS011;14925;51.026;13.752;2022-12-22T05:13:27;45.63;;;23.27;;
27489;SDS011;14925;51.026;13.752;2022-12-22T05:15:52;45.63;;;23.52;;
27489;SDS011;14925;51.026;13.752;2022-12-22T05:18:18;47.95;;;24.02;;
27489;SDS011;14925;51.026;13.752;2022-12-22T05:20:43;43.05;;;21.98;;
27489;SDS011;14925;51.026;13.752;2022-12-22T05:23:09;46.78;;;22.77;;
27489;SDS011;14925;51.026;13.752;2022-12-22T05:25:34;39.92;;;22.40;;
27489;SDS011;14925;51.026;13.752;2022-12-22T05:27:59;47.78;;;23.13;;
27489;SDS011;14925;51.026;13.752;2022-12-22T05:30:25;46.85;;;22.83;;
27489;SDS011;14925;51.026;13.752;2022-12-22T05:32:50;44.63;;;21.83;;
27489;SDS011;14925;51.026;13.752;2022-12-22T05:35:15;43.03;;;22.17;;
27489;SDS011;14925;51.026;13.752;2022-12-22T05:37:41;43.25;;;22.02;;
27489;SDS011;14925;51.026;13.752;2022-12-22T05:40:07;42.58;;;22.33;;
27489;SDS011;14925;51.026;13.752;2022-12-22T05:42:33;41.35;;;22.23;;
27489;SDS011;14925;51.026;13.752;2022-12-22T05:47:26;43.95;;;21.83;;
27489;SDS011;14925;51.026;13.752;2022-12-22T05:49:52;40.40;;;21.90;;
27489;SDS011;14925;51.026;13.752;2022-12-22T05:52:17;41.80;;;22.17;;
27489;SDS011;14925;51.026;13.752;2022-12-22T05:54:42;44.40;;;23.02;;
27489;SDS011;14925;51.026;13.752;2022-12-22T05:57:08;44.15;;;21.30;;
27489;SDS011;14925;51.026;13.752;2022-12-22T05:59:33;39.25;;;21.38;;
27489;SDS011;14925;51.026;13.752;2022-12-22T06:01:58;37.97;;;21.15;;
27489;SDS011;14925;51.026;13.752;2022-12-22T06:04:24;39.78;;;21.10;;
27489;SDS011;14925;51.026;13.752;2022-12-22T06:06:49;40.42;;;20.30;;
27489;SDS011;14925;51.026;13.752;2022-12-22T06:09:14;36.90;;;19.77;;
27489;SDS011;14925;51.026;13.752;2022-12-22T06:11:40;36.95;;;20.98;;
27489;SDS011;14925;51.026;13.752;2022-12-22T06:14:05;41.20;;;20.73;;
27489;SDS011;14925;51.026;13.752;2022-12-22T06:16:31;39.85;;;20.75;;
27489;SDS011;14925;51.026;13.752;2022-12-22T06:18:56;39.28;;;21.00;;
27489;SDS011;14925;51.026;13.752;2022-12-22T06:21:21;39.88;;;20.35;;
27489;SDS011;14925;51.026;13.752;2022-12-22T06:23:47;41.65;;;22.05;;
27489;SDS011;14925;51.026;13.752;2022-12-22T06:26:12;40.03;;;20.88;;
27489;SDS011;14925;51.026;13.752;2022-12-22T06:28:38;43.08;;;21.98;;
27489;SDS011;14925;51.026;13.752;2022-12-22T06:31:03;38.25;;;21.70;;
27489;SDS011;14925;51.026;13.752;2022-12-22T06:33:28;43.25;;;23.92;;
27489;SDS011;14925;51.026;13.752;2022-12-22T06:35:58;40.97;;;23.58;;
27489;SDS011;14925;51.026;13.752;2022-12-22T06:38:28;50.28;;;26.02;;
27489;SDS011;14925;51.026;13.752;2022-12-22T06:40:54;49.90;;;26.88;;
27489;SDS011;14925;51.026;13.752;2022-12-22T06:43:19;50.30;;;25.90;;
27489;SDS011;14925;51.026;13.752;2022-12-22T06:45:45;44.83;;;24.88;;
27489;SDS011;14925;51.026;13.752;2022-12-22T06:48:10;48.13;;;24.08;;
27489;SDS011;14925;51.026;13.752;2022-12-22T06:50:36;45.30;;;25.30;;
27489;SDS011;14925;51.026;13.752;2022-12-22T06:53:02;46.47;;;25.35;;
27489;SDS011;14925;51.026;13.752;2022-12-22T06:55:27;50.78;;;27.92;;
27489;SDS011;14925;51.026;13.752;2022-12-22T06:57:53;44.78;;;24.85;;
27489;SDS011;14925;51.026;13.752;2022-12-22T07:00:18;41.35;;;23.50;;
27489;SDS011;14925;51.026;13.752;2022-12-22T07:02:44;45.80;;;24.10;;
27489;SDS011;14925;51.026;13.752;2022-12-22T07:05:09;38.50;;;20.90;;
27489;SDS011;14925;51.026;13.752;2022-12-22T07:07:35;42.30;;;20.70;;
27489;SDS011;14925;51.026;13.752;2022-12-22T07:10:00;42.15;;;21.75;;
27489;SDS011;14925;51.026;13.752;2022-12-22T07:12:26;40.17;;;21.65;;
27489;SDS011;14925;51.026;13.752;2022-12-22T07:14:51;43.72;;;22.92;;
27489;SDS011;14925;51.026;13.752;2022-12-22T07:17:17;44.30;;;23.48;;
27489;SDS011;14925;51.026;13.752;2022-12-22T07:19:42;44.88;;;22.13;;
27489;SDS011;14925;51.026;13.752;2022-12-22T07:22:07;43.05;;;21.80;;
27489;SDS011;14925;51.026;13.752;2022-12-22T07:24:33;36.35;;;20.95;;
27489;SDS011;14925;51.026;13.752;2022-12-22T07:26:59;38.33;;;20.05;;
27489;SDS011;14925;51.026;13.752;2022-12-22T07:29:24;39.03;;;20.65;;
27489;SDS011;14925;51.026;13.752;2022-12-22T07:31:49;36.80;;;20.50;;
27489;SDS011;14925;51.026;13.752;2022-12-22T07:34:15;36.20;;;20.38;;
27489;SDS011;14925;51.026;13.752;2022-12-22T07:36:41;37.05;;;19.75;;
27489;SDS011;14925;51.026;13.752;2022-12-22T07:39:09;33.63;;;19.13;;
27489;SDS011;14925;51.026;13.752;2022-12-22T07:41:38;32.55;;;18.55;;
27489;SDS011;14925;51.026;13.752;2022-12-22T07:44:22;35.30;;;19.50;;
27489;SDS011;14925;51.026;13.752;2022-12-22T07:46:48;31.42;;;16.65;;
27489;SDS011;14925;51.026;13.752;2022-12-22T07:49:13;30.75;;;17.33;;
27489;SDS011;14925;51.026;13.752;2022-12-22T07:51:58;31.48;;;16.40;;
27489;SDS011;14925;51.026;13.752;2022-12-22T07:54:24;30.45;;;15.75;;
27489;SDS011;14925;51.026;13.752;2022-12-22T07:56:49;27.27;;;14.93;;
27489;SDS011;14925;51.026;13.752;2022-12-22T07:59:15;25.20;;;14.40;;
27489;SDS011;14925;51.026;13.752;2022-12-22T08:01:41;26.15;;;15.00;;
27489;SDS011;14925;51.026;13.752;2022-12-22T08:04:07;25.88;;;14.65;;
27489;SDS011;14925;51.026;13.752;2022-12-22T08:06:33;24.13;;;14.57;;
27489;SDS011;14925;51.026;13.752;2022-12-22T08:08:59;26.60;;;14.93;;
27489;SDS011;14925;51.026;13.752;2022-12-22T08:11:24;26.52;;;14.45;;
27489;SDS011;14925;51.026;13.752;2022-12-22T08:13:50;25.42;;;15.10;;
27489;SDS011;14925;51.026;13.752;2022-12-22T08:16:15;26.13;;;15.65;;
27489;SDS011;14925;51.026;13.752;2022-12-22T08:18:41;27.45;;;15.88;;
27489;SDS011;14925;51.026;13.752;2022-12-22T08:21:08;28.05;;;16.00;;
27489;SDS011;14925;51.026;13.752;2022-12-22T08:23:34;30.67;;;16.88;;
27489;SDS011;14925;51.026;13.752;2022-12-22T08:26:42;29.58;;;16.85;;
27489;SDS011;14925;51.026;13.752;2022-12-22T08:29:04;28.88;;;15.52;;
27489;SDS011;14925;51.026;13.752;2022-12-22T08:31:33;28.17;;;16.25;;
27489;SDS011;14925;51.026;13.752;2022-12-22T08:33:58;26.70;;;15.25;;
27489;SDS011;14925;51.026;13.752;2022-12-22T08:36:26;25.00;;;14.90;;
27489;SDS011;14925;51.026;13.752;2022-12-22T08:38:51;26.30;;;15.63;;
27489;SDS011;14925;51.026;13.752;2022-12-22T08:41:17;24.48;;;15.15;;
27489;SDS011;14925;51.026;13.752;2022-12-22T08:44:05;25.90;;;14.55;;
27489;SDS011;14925;51.026;13.752;2022-12-22T08:46:30;26.88;;;15.02;;
27489;SDS011;14925;51.026;13.752;2022-12-22T08:48:56;22.55;;;14.63;;
27489;SDS011;14925;51.026;13.752;2022-12-22T08:51:21;26.13;;;14.35;;
27489;SDS011;14925;51.026;13.752;2022-12-22T08:53:46;21.00;;;13.52;;
27489;SDS011;14925;51.026;13.752;2022-12-22T08:56:12;23.23;;;14.70;;
27489;SDS011;14925;51.026;13.752;2022-12-22T08:58:37;23.85;;;13.77;;
27489;SDS011;14925;51.026;13.752;2022-12-22T09:01:04;22.88;;;13.95;;
27489;SDS011;14925;51.026;13.752;2022-12-22T09:03:29;20.38;;;13.05;;
27489;SDS011;14925;51.026;13.752;2022-12-22T09:06:01;20.58;;;13.43;;
27489;SDS011;14925;51.026;13.752;2022-12-22T09:08:26;22.83;;;13.95;;
27489;SDS011;14925;51.026;13.752;2022-12-22T09:10:52;19.42;;;12.57;;
27489;SDS011;14925;51.026;13.752;2022-12-22T09:13:17;20.67;;;12.98;;
27489;SDS011;14925;51.026;13.752;2022-12-22T09:15:42;18.35;;;12.05;;
27489;SDS011;14925;51.026;13.752;2022-12-22T09:18:08;17.95;;;11.73;;
27489;SDS011;14925;51.026;13.752;2022-12-22T09:20:33;18.63;;;11.77;;
27489;SDS011;14925;51.026;13.752;2022-12-22T09:22:59;15.55;;;11.25;;
27489;SDS011;14925;51.026;13.752;2022-12-22T09:25:24;20.42;;;11.23;;
27489;SDS011;14925;51.026;13.752;2022-12-22T09:27:49;21.80;;;14.35;;
27489;SDS011;14925;51.026;13.752;2022-12-22T09:30:15;22.13;;;12.63;;
27489;SDS011;14925;51.026;13.752;2022-12-22T09:32:40;20.60;;;12.43;;
27489;SDS011;14925;51.026;13.752;2022-12-22T09:35:06;19.10;;;11.60;;
27489;SDS011;14925;51.026;13.752;2022-12-22T09:37:31;20.08;;;11.80;;
27489;SDS011;14925;51.026;13.752;2022-12-22T09:39:57;17.50;;;11.40;;
27489;SDS011;14925;51.026;13.752;2022-12-22T09:42:22;17.65;;;11.63;;
27489;SDS011;14925;51.026;13.752;2022-12-22T09:44:48;17.48;;;10.95;;
27489;SDS011;14925;51.026;13.752;2022-12-22T09:49:47;17.88;;;11.40;;
27489;SDS011;14925;51.026;13.752;2022-12-22T09:52:23;15.70;;;10.52;;
27489;SDS011;14925;51.026;13.752;2022-12-22T09:55:09;13.80;;;9.55;;
27489;SDS011;14925;51.026;13.752;2022-12-22T09:57:48;16.17;;;10.77;;
27489;SDS011;14925;51.026;13.752;2022-12-22T10:00:16;17.63;;;10.27;;
27489;SDS011;14925;51.026;13.752;2022-12-22T10:08:15;13.43;;;9.43;;
27489;SDS011;14925;51.026;13.752;2022-12-22T10:10:51;14.68;;;10.05;;
27489;SDS011;14925;51.026;13.752;2022-12-22T10:13:17;17.33;;;9.98;;
27489;SDS011;14925;51.026;13.752;2022-12-22T10:15:43;14.82;;;9.43;;
27489;SDS011;14925;51.026;13.752;2022-12-22T10:20:37;11.75;;;8.35;;
27489;SDS011;14925;51.026;13.752;2022-12-22T10:23:11;13.70;;;9.07;;
27489;SDS011;14925;51.026;13.752;2022-12-22T10:25:57;13.13;;;8.77;;
27489;SDS011;14925;51.026;13.752;2022-12-22T10:28:29;15.00;;;8.98;;
27489;SDS011;14925;51.026;13.752;2022-12-22T10:31:09;14.23;;;9.25;;
27489;SDS011;14925;51.026;13.752;2022-12-22T10:33:55;13.35;;;9.52;;
27489;SDS011;14925;51.026;13.752;2022-12-22T10:36:24;13.15;;;8.63;;
27489;SDS011;14925;51.026;13.752;2022-12-22T10:39:02;12.82;;;8.98;;
27489;SDS011;14925;51.026;13.752;2022-12-22T10:41:36;13.40;;;8.70;;
27489;SDS011;14925;51.026;13.752;2022-12-22T10:46:46;13.02;;;8.55;;
27489;SDS011;14925;51.026;13.752;2022-12-22T10:51:55;10.60;;;7.18;;
27489;SDS011;14925;51.026;13.752;2022-12-22T10:54:29;17.27;;;9.35;;
27489;SDS011;14925;51.026;13.752;2022-12-22T10:59:29;14.60;;;8.70;;
27489;SDS011;14925;51.026;13.752;2022-12-22T11:04:46;4.35;;;2.60;;
27489;SDS011;14925;51.026;13.752;2022-12-22T11:07:12;3.58;;;2.38;;
27489;SDS011;14925;51.026;13.752;2022-12-22T11:09:40;2.03;;;1.58;;
27489;SDS011;14925;51.026;13.752;2022-12-22T11:22:59;1.95;;;0.50;;
27489;SDS011;14925;51.026;13.752;2022-12-22T11:28:22;0.60;;;0.40;;
27489;SDS011;14925;51.026;13.752;2022-12-22T11:39:11;0.75;;;0.50;;
27489;SDS011;14925;51.026;13.752;2022-12-22T11:46:46;2.10;;;0.90;;
27489;SDS011;14925;51.026;13.752;2022-12-22T11:57:17;1.13;;;0.70;;
27489;SDS011;14925;51.026;13.752;2022-12-22T12:07:31;1.60;;;0.50;;
27489;SDS011;14925;51.026;13.752;2022-12-22T12:12:52;1.25;;;0.75;;
27489;SDS011;14925;51.026;13.752;2022-12-22T12:15:34;1.23;;;0.60;;
27489;SDS011;14925;51.026;13.752;2022-12-22T12:21:09;1.52;;;0.60;;
27489;SDS011;14925;51.026;13.752;2022-12-22T12:29:50;1.23;;;0.60;;
27489;SDS011;14925;51.026;13.752;2022-12-22T12:32:21;1.80;;;0.65;;
27489;SDS011;14925;51.026;13.752;2022-12-22T12:34:51;1.83;;;0.60;;
27489;SDS011;14925;51.026;13.752;2022-12-22T12:37:28;1.77;;;0.70;;
27489;SDS011;14925;51.026;13.752;2022-12-22T12:42:54;3.67;;;0.95;;
27489;SDS011;14925;51.026;13.752;2022-12-22T12:45:37;1.63;;;0.60;;
27489;SDS011;14925;51.026;13.752;2022-12-22T12:50:46;2.10;;;0.68;;
27489;SDS011;14925;51.026;13.752;2022-12-22T12:53:12;1.98;;;0.75;;
27489;SDS011;14925;51.026;13.752;2022-12-22T12:58:04;2.30;;;0.70;;
27489;SDS011;14925;51.026;13.752;2022-12-22T13:05:31;2.38;;;0.70;;
27489;SDS011;14925;51.026;13.752;2022-12-22T13:08:17;2.22;;;0.73;;
27489;SDS011;14925;51.026;13.752;2022-12-22T13:15:46;2.60;;;0.90;;
27489;SDS011;14925;51.026;13.752;2022-12-22T13:20:52;2.08;;;1.00;;
27489;SDS011;14925;51.026;13.752;2022-12-22T13:23:39;2.83;;;1.05;;
27489;SDS011;14925;51.026;13.752;2022-12-22T13:26:08;4.07;;;1.20;;
27489;SDS011;14925;51.026;13.752;2022-12-22T13:28:35;4.00;;;2.10;;
27489;SDS011;14925;51.026;13.752;2022-12-22T13:31:06;2.60;;;1.90;;
27489;SDS011;14925;51.026;13.752;2022-12-22T13:33:38;3.88;;;1.50;;
27489;SDS011;14925;51.026;13.752;2022-12-22T13:36:05;2.38;;;0.70;;
27489;SDS011;14925;51.026;13.752;2022-12-22T13:38:33;1.95;;;0.70;;
27489;SDS011;14925;51.026;13.752;2022-12-22T13:41:11;1.67;;;0.63;;
27489;SDS011;14925;51.026;13.752;2022-12-22T13:43:40;2.70;;;0.60;;
27489;SDS011;14925;51.026;13.752;2022-12-22T13:46:06;3.20;;;1.20;;
27489;SDS011;14925;51.026;13.752;2022-12-22T13:48:35;3.45;;;0.90;;
27489;SDS011;14925;51.026;13.752;2022-12-22T13:51:04;2.00;;;0.98;;
27489;SDS011;14925;51.026;13.752;2022-12-22T13:55:57;4.63;;;1.70;;
27489;SDS011;14925;51.026;13.752;2022-12-22T13:58:24;3.25;;;1.42;;
27489;SDS011;14925;51.026;13.752;2022-12-22T14:03:26;4.03;;;1.30;;
27489;SDS011;14925;51.026;13.752;2022-12-22T14:05:51;3.17;;;1.38;;
27489;SDS011;14925;51.026;13.752;2022-12-22T14:08:20;2.88;;;1.10;;
27489;SDS011;14925;51.026;13.752;2022-12-22T14:10:46;3.08;;;0.80;;
27489;SDS011;14925;51.026;13.752;2022-12-22T14:13:13;3.42;;;0.93;;
27489;SDS011;14925;51.026;13.752;2022-12-22T14:15:41;2.53;;;0.90;;
27489;SDS011;14925;51.026;13.752;2022-12-22T14:18:11;2.40;;;0.82;;
27489;SDS011;14925;51.026;13.752;2022-12-22T14:20:38;4.10;;;0.50;;
27489;SDS011;14925;51.026;13.752;2022-12-22T14:23:05;1.83;;;0.60;;
27489;SDS011;14925;51.026;13.752;2022-12-22T14:25:38;2.05;;;0.98;;
27489;SDS011;14925;51.026;13.752;2022-12-22T14:28:05;2.53;;;0.90;;
27489;SDS011;14925;51.026;13.752;2022-12-22T14:30:44;1.85;;;0.75;;
27489;SDS011;14925;51.026;13.752;2022-12-22T14:38:28;1.48;;;0.80;;
27489;SDS011;14925;51.026;13.752;2022-12-22T14:40:53;4.25;;;1.20;;
27489;SDS011;14925;51.026;13.752;2022-12-22T14:45:48;1.02;;;0.60;;
27489;SDS011;14925;51.026;13.752;2022-12-22T14:48:23;2.03;;;0.68;;
27489;SDS011;14925;51.026;13.752;2022-12-22T14:50:51;2.42;;;0.80;;
27489;SDS011;14925;51.026;13.752;2022-12-22T14:53:24;3.72;;;1.13;;
27489;SDS011;14925;51.026;13.752;2022-12-22T14:55:53;2.97;;;0.90;;
27489;SDS011;14925;51.026;13.752;2022-12-22T14:58:30;2.90;;;1.05;;
27489;SDS011;14925;51.026;13.752;2022-12-22T15:01:14;1.08;;;0.68;;
27489;SDS011;14925;51.026;13.752;2022-12-22T15:03:40;3.22;;;0.85;;
27489;SDS011;14925;51.026;13.752;2022-12-22T15:08:50;2.50;;;0.85;;
27489;SDS011;14925;51.026;13.752;2022-12-22T15:11:37;1.92;;;0.80;;
27489;SDS011;14925;51.026;13.752;2022-12-22T15:14:11;2.53;;;0.80;;
27489;SDS011;14925;51.026;13.752;2022-12-22T15:16:40;2.33;;;0.70;;
27489;SDS011;14925;51.026;13.752;2022-12-22T15:19:06;2.65;;;0.80;;
27489;SDS011;14925;51.026;13.752;2022-12-22T15:21:34;2.55;;;0.70;;
27489;SDS011;14925;51.026;13.752;2022-12-22T15:23:59;1.13;;;0.57;;
27489;SDS011;14925;51.026;13.752;2022-12-22T15:26:25;1.63;;;0.75;;
27489;SDS011;14925;51.026;13.752;2022-12-22T15:28:50;3.35;;;0.70;;
27489;SDS011;14925;51.026;13.752;2022-12-22T15:31:16;1.10;;;0.60;;
27489;SDS011;14925;51.026;13.752;2022-12-22T15:33:42;2.20;;;0.57;;
27489;SDS011;14925;51.026;13.752;2022-12-22T15:36:08;2.78;;;0.70;;
27489;SDS011;14925;51.026;13.752;2022-12-22T15:38:36;2.15;;;0.82;;
27489;SDS011;14925;51.026;13.752;2022-12-22T15:41:03;2.67;;;1.30;;
27489;SDS011;14925;51.026;13.752;2022-12-22T15:43:30;3.25;;;1.20;;
27489;SDS011;14925;51.026;13.752;2022-12-22T15:45:55;5.07;;;1.40;;
27489;SDS011;14925;51.026;13.752;2022-12-22T15:48:22;2.22;;;1.20;;
27489;SDS011;14925;51.026;13.752;2022-12-22T15:50:53;4.38;;;1.95;;
27489;SDS011;14925;51.026;13.752;2022-12-22T15:53:19;6.57;;;2.33;;
27489;SDS011;14925;51.026;13.752;2022-12-22T15:55:45;3.85;;;1.83;;
27489;SDS011;14925;51.026;13.752;2022-12-22T15:58:14;5.32;;;1.95;;
27489;SDS011;14925;51.026;13.752;2022-12-22T16:00:42;3.63;;;1.98;;
27489;SDS011;14925;51.026;13.752;2022-12-22T16:03:08;5.72;;;2.00;;
27489;SDS011;14925;51.026;13.752;2022-12-22T16:05:34;5.50;;;1.75;;
27489;SDS011;14925;51.026;13.752;2022-12-22T16:08:00;4.32;;;1.67;;
27489;SDS011;14925;51.026;13.752;2022-12-22T16:10:27;5.75;;;1.70;;
27489;SDS011;14925;51.026;13.752;2022-12-22T16:12:54;4.30;;;1.15;;
27489;SDS011;14925;51.026;13.752;2022-12-22T16:15:28;2.83;;;1.42;;
27489;SDS011;14925;51.026;13.752;2022-12-22T16:17:55;3.72;;;1.40;;
27489;SDS011;14925;51.026;13.752;2022-12-22T16:20:31;2.60;;;1.20;;
27489;SDS011;14925;51.026;13.752;2022-12-22T16:23:01;4.25;;;1.45;;
27489;SDS011;14925;51.026;13.752;2022-12-22T16:25:29;6.32;;;1.60;;
27489;SDS011;14925;51.026;13.752;2022-12-22T16:27:58;5.53;;;1.70;;
27489;SDS011;14925;51.026;13.752;2022-12-22T16:30:25;3.33;;;1.77;;
27489;SDS011;14925;51.026;13.752;2022-12-22T16:32:52;2.70;;;2.15;;
27489;SDS011;14925;51.026;13.752;2022-12-22T16:35:20;2.72;;;1.92;;
27489;SDS011;14925;51.026;13.752;2022-12-22T16:37:54;4.32;;;1.98;;
27489;SDS011;14925;51.026;13.752;2022-12-22T16:40:20;3.80;;;2.05;;
27489;SDS011;14925;51.026;13.752;2022-12-22T16:45:42;3.30;;;2.58;;
27489;SDS011;14925;51.026;13.752;2022-12-22T16:48:11;7.25;;;3.55;;
27489;SDS011;14925;51.026;13.752;2022-12-22T16:50:59;5.72;;;3.95;;
27489;SDS011;14925;51.026;13.752;2022-12-22T16:53:24;6.38;;;4.50;;
27489;SDS011;14925;51.026;13.752;2022-12-22T16:55:53;6.22;;;5.10;;
27489;SDS011;14925;51.026;13.752;2022-12-22T16:58:18;10.95;;;6.57;;
27489;SDS011;14925;51.026;13.752;2022-12-22T17:00:45;10.13;;;7.38;;
27489;SDS011;14925;51.026;13.752;2022-12-22T17:03:12;13.30;;;8.77;;
27489;SDS011;14925;51.026;13.752;2022-12-22T17:06:00;13.13;;;8.60;;
27489;SDS011;14925;51.026;13.752;2022-12-22T17:08:35;14.13;;;10.60;;
27489;SDS011;14925;51.026;13.752;2022-12-22T17:11:05;16.23;;;11.65;;
27489;SDS011;14925;51.026;13.752;2022-12-22T17:13:31;18.10;;;12.15;;
27489;SDS011;14925;51.026;13.752;2022-12-22T17:15:56;18.02;;;12.32;;